sensor_id;sensor_type;location;lat;lon;timestamp;pressure;altitude;pressure_sealevel;temperature;humidity
64139;BME280;50435;43.700;-79.318;2023-06-19T00:00:23;99909.29;;;24.52;32.72
64139;BME280;50435;43.700;-79.318;2023-06-19T00:02:51;99910.42;;;23.94;32.89
64139;BME280;50435;43.700;-79.318;2023-06-19T00:05:18;99916.58;;;24.38;33.03
64139;BME280;50435;43.700;-79.318;2023-06-19T00:07:46;99915.46;;;24.32;33.08
64139;BME280;50435;43.700;-79.318;2023-06-19T00:10:13;99907.09;;;24.25;33.16
64139;BME280;50435;43.700;-79.318;2023-06-19T00:12:40;99900.71;;;24.14;33.31
64139;BME280;50435;43.700;-79.318;2023-06-19T00:15:09;99910.78;;;24.13;33.40
64139;BME280;50435;43.700;-79.318;2023-06-19T00:17:37;99917.27;;;23.96;33.64
64139;BME280;50435;43.700;-79.318;2023-06-19T00:20:05;99916.32;;;23.84;33.77
64139;BME280;50435;43.700;-79.318;2023-06-19T00:22:33;99910.81;;;23.80;33.77
64139;BME280;50435;43.700;-79.318;2023-06-19T00:25:01;99913.44;;;23.68;33.93
64139;BME280;50435;43.700;-79.318;2023-06-19T00:27:28;99918.64;;;23.60;33.89
64139;BME280;50435;43.700;-79.318;2023-06-19T00:29:55;99927.50;;;23.61;33.96
64139;BME280;50435;43.700;-79.318;2023-06-19T00:32:23;99926.14;;;23.51;34.03
64139;BME280;50435;43.700;-79.318;2023-06-19T00:34:50;99929.80;;;23.32;34.23
64139;BME280;50435;43.700;-79.318;2023-06-19T00:37:18;99935.98;;;23.22;34.34
64139;BME280;50435;43.700;-79.318;2023-06-19T00:39:45;99937.02;;;23.38;34.44
64139;BME280;50435;43.700;-79.318;2023-06-19T00:42:12;99935.59;;;23.29;34.61
64139;BME280;50435;43.700;-79.318;2023-06-19T00:44:40;99932.51;;;23.38;34.80
64139;BME280;50435;43.700;-79.318;2023-06-19T00:47:07;99931.28;;;23.31;34.87
64139;BME280;50435;43.700;-79.318;2023-06-19T00:49:34;99930.08;;;23.27;34.94
64139;BME280;50435;43.700;-79.318;2023-06-19T00:52:02;99928.13;;;23.22;34.98
64139;BME280;50435;43.700;-79.318;2023-06-19T00:54:30;99926.34;;;23.14;35.03
64139;BME280;50435;43.700;-79.318;2023-06-19T00:57:00;99930.92;;;23.10;35.00
64139;BME280;50435;43.700;-79.318;2023-06-19T00:59:28;99948.29;;;22.97;35.15
64139;BME280;50435;43.700;-79.318;2023-06-19T01:01:56;99951.55;;;22.92;35.18
64139;BME280;50435;43.700;-79.318;2023-06-19T01:04:23;99953.99;;;22.88;35.19
64139;BME280;50435;43.700;-79.318;2023-06-19T01:06:53;99946.55;;;22.85;35.24
64139;BME280;50435;43.700;-79.318;2023-06-19T01:09:22;99944.67;;;23.00;35.32
64139;BME280;50435;43.700;-79.318;2023-06-19T01:11:54;99947.15;;;22.74;35.35
64139;BME280;50435;43.700;-79.318;2023-06-19T01:14:28;99954.79;;;22.37;35.49
64139;BME280;50435;43.700;-79.318;2023-06-19T01:16:58;99954.34;;;22.45;35.65
64139;BME280;50435;43.700;-79.318;2023-06-19T01:19:26;99952.95;;;22.34;35.77
64139;BME280;50435;43.700;-79.318;2023-06-19T01:21:54;99958.01;;;22.56;35.71
64139;BME280;50435;43.700;-79.318;2023-06-19T01:24:21;99965.69;;;22.53;35.71
64139;BME280;50435;43.700;-79.318;2023-06-19T01:26:49;99965.78;;;22.36;35.96
64139;BME280;50435;43.700;-79.318;2023-06-19T01:29:16;99963.17;;;22.05;36.04
64139;BME280;50435;43.700;-79.318;2023-06-19T01:31:49;99963.43;;;22.15;36.25
64139;BME280;50435;43.700;-79.318;2023-06-19T01:34:21;99966.33;;;22.14;36.18
64139;BME280;50435;43.700;-79.318;2023-06-19T01:36:49;99977.47;;;21.94;36.18
64139;BME280;50435;43.700;-79.318;2023-06-19T01:39:18;99982.33;;;22.06;36.32
64139;BME280;50435;43.700;-79.318;2023-06-19T01:41:47;99985.43;;;21.98;36.31
64139;BME280;50435;43.700;-79.318;2023-06-19T01:44:15;99986.75;;;22.20;36.39
64139;BME280;50435;43.700;-79.318;2023-06-19T01:46:42;99987.19;;;21.91;36.40
64139;BME280;50435;43.700;-79.318;2023-06-19T01:49:10;99996.15;;;21.81;36.47
64139;BME280;50435;43.700;-79.318;2023-06-19T01:51:38;100001.00;;;21.92;36.68
64139;BME280;50435;43.700;-79.318;2023-06-19T01:54:05;100000.10;;;21.86;36.71
64139;BME280;50435;43.700;-79.318;2023-06-19T01:56:33;99998.36;;;21.94;36.54
64139;BME280;50435;43.700;-79.318;2023-06-19T01:59:01;99998.98;;;21.49;36.75
64139;BME280;50435;43.700;-79.318;2023-06-19T02:01:29;100000.18;;;21.58;36.93
64139;BME280;50435;43.700;-79.318;2023-06-19T02:03:57;100003.96;;;21.68;36.85
64139;BME280;50435;43.700;-79.318;2023-06-19T02:06:24;100009.72;;;21.69;36.78
64139;BME280;50435;43.700;-79.318;2023-06-19T02:08:52;100005.41;;;21.50;37.03
64139;BME280;50435;43.700;-79.318;2023-06-19T02:11:20;100001.62;;;21.48;37.06
64139;BME280;50435;43.700;-79.318;2023-06-19T02:13:48;99998.18;;;21.50;36.97
64139;BME280;50435;43.700;-79.318;2023-06-19T02:16:15;100004.22;;;21.47;37.02
64139;BME280;50435;43.700;-79.318;2023-06-19T02:18:42;100013.85;;;21.27;37.35
64139;BME280;50435;43.700;-79.318;2023-06-19T02:21:09;100016.11;;;21.38;37.38
64139;BME280;50435;43.700;-79.318;2023-06-19T02:23:37;100017.89;;;21.25;37.25
64139;BME280;50435;43.700;-79.318;2023-06-19T02:26:05;100021.68;;;21.33;37.30
64139;BME280;50435;43.700;-79.318;2023-06-19T02:28:32;100030.30;;;21.16;37.24
64139;BME280;50435;43.700;-79.318;2023-06-19T02:31:00;100031.82;;;21.04;37.26
64139;BME280;50435;43.700;-79.318;2023-06-19T02:33:28;100033.50;;;21.31;37.31
64139;BME280;50435;43.700;-79.318;2023-06-19T02:35:55;100036.57;;;21.02;37.32
64139;BME280;50435;43.700;-79.318;2023-06-19T02:38:23;100039.25;;;21.10;37.56
64139;BME280;50435;43.700;-79.318;2023-06-19T02:40:50;100046.54;;;21.00;37.70
64139;BME280;50435;43.700;-79.318;2023-06-19T02:43:18;100048.78;;;20.73;37.77
64139;BME280;50435;43.700;-79.318;2023-06-19T02:45:45;100050.21;;;21.21;37.67
64139;BME280;50435;43.700;-79.318;2023-06-19T02:48:13;100053.47;;;20.99;37.52
64139;BME280;50435;43.700;-79.318;2023-06-19T02:50:40;100051.64;;;20.75;37.98
64139;BME280;50435;43.700;-79.318;2023-06-19T02:53:07;100048.27;;;21.03;37.75
64139;BME280;50435;43.700;-79.318;2023-06-19T02:55:35;100051.32;;;20.73;37.96
64139;BME280;50435;43.700;-79.318;2023-06-19T02:58:02;100057.67;;;20.93;37.90
64139;BME280;50435;43.700;-79.318;2023-06-19T03:00:30;100063.83;;;21.02;38.19
64139;BME280;50435;43.700;-79.318;2023-06-19T03:02:57;100067.33;;;20.88;37.97
64139;BME280;50435;43.700;-79.318;2023-06-19T03:05:24;100062.74;;;20.69;38.31
64139;BME280;50435;43.700;-79.318;2023-06-19T03:07:52;100063.55;;;20.74;38.16
64139;BME280;50435;43.700;-79.318;2023-06-19T03:10:20;100065.19;;;20.55;38.47
64139;BME280;50435;43.700;-79.318;2023-06-19T03:12:47;100066.04;;;20.73;38.52
64139;BME280;50435;43.700;-79.318;2023-06-19T03:15:14;100068.03;;;20.39;38.79
64139;BME280;50435;43.700;-79.318;2023-06-19T03:17:42;100065.97;;;20.28;38.82
64139;BME280;50435;43.700;-79.318;2023-06-19T03:20:10;100063.96;;;20.45;38.96
64139;BME280;50435;43.700;-79.318;2023-06-19T03:22:40;100065.78;;;20.56;38.74
64139;BME280;50435;43.700;-79.318;2023-06-19T03:25:08;100069.60;;;20.13;39.16
64139;BME280;50435;43.700;-79.318;2023-06-19T03:27:36;100073.86;;;20.06;39.12
64139;BME280;50435;43.700;-79.318;2023-06-19T03:30:04;100076.74;;;20.02;39.13
64139;BME280;50435;43.700;-79.318;2023-06-19T03:32:32;100080.48;;;20.24;39.17
64139;BME280;50435;43.700;-79.318;2023-06-19T03:35:00;100089.31;;;19.62;39.40
64139;BME280;50435;43.700;-79.318;2023-06-19T03:37:28;100084.16;;;19.99;39.59
64139;BME280;50435;43.700;-79.318;2023-06-19T03:39:55;100077.14;;;20.56;38.94
64139;BME280;50435;43.700;-79.318;2023-06-19T03:42:22;100068.67;;;20.08;39.34
64139;BME280;50435;43.700;-79.318;2023-06-19T03:44:50;100071.88;;;20.10;39.24
64139;BME280;50435;43.700;-79.318;2023-06-19T03:47:17;100078.72;;;19.98;39.48
64139;BME280;50435;43.700;-79.318;2023-06-19T03:49:45;100080.39;;;19.93;39.34
64139;BME280;50435;43.700;-79.318;2023-06-19T03:52:12;100078.48;;;19.87;39.62
64139;BME280;50435;43.700;-79.318;2023-06-19T03:54:40;100077.98;;;20.05;39.65
64139;BME280;50435;43.700;-79.318;2023-06-19T03:57:07;100082.35;;;19.79;39.72
64139;BME280;50435;43.700;-79.318;2023-06-19T03:59:35;100085.36;;;19.70;39.82
64139;BME280;50435;43.700;-79.318;2023-06-19T04:02:02;100079.91;;;19.72;39.90
64139;BME280;50435;43.700;-79.318;2023-06-19T04:04:30;100078.76;;;19.56;39.87
64139;BME280;50435;43.700;-79.318;2023-06-19T04:06:57;100080.26;;;19.32;39.71
64139;BME280;50435;43.700;-79.318;2023-06-19T04:09:25;100081.71;;;19.82;39.76
64139;BME280;50435;43.700;-79.318;2023-06-19T04:11:52;100080.27;;;19.73;39.92
64139;BME280;50435;43.700;-79.318;2023-06-19T04:14:20;100080.15;;;19.64;39.89
64139;BME280;50435;43.700;-79.318;2023-06-19T04:16:48;100082.63;;;19.57;40.11
64139;BME280;50435;43.700;-79.318;2023-06-19T04:19:15;100084.73;;;19.38;40.06
64139;BME280;50435;43.700;-79.318;2023-06-19T04:21:43;100090.13;;;19.60;39.99
64139;BME280;50435;43.700;-79.318;2023-06-19T04:24:10;100091.89;;;19.31;40.06
64139;BME280;50435;43.700;-79.318;2023-06-19T04:26:37;100095.01;;;19.45;40.24
64139;BME280;50435;43.700;-79.318;2023-06-19T04:29:05;100091.85;;;19.42;40.21
64139;BME280;50435;43.700;-79.318;2023-06-19T04:31:32;100085.14;;;19.38;40.29
64139;BME280;50435;43.700;-79.318;2023-06-19T04:34:00;100075.15;;;19.39;40.15
64139;BME280;50435;43.700;-79.318;2023-06-19T04:36:27;100076.60;;;19.30;40.28
64139;BME280;50435;43.700;-79.318;2023-06-19T04:38:55;100079.44;;;19.30;40.30
64139;BME280;50435;43.700;-79.318;2023-06-19T04:41:22;100081.84;;;19.18;40.49
64139;BME280;50435;43.700;-79.318;2023-06-19T04:43:50;100079.30;;;19.23;40.55
64139;BME280;50435;43.700;-79.318;2023-06-19T04:46:17;100073.72;;;19.14;40.42
64139;BME280;50435;43.700;-79.318;2023-06-19T04:48:44;100072.35;;;19.13;40.61
64139;BME280;50435;43.700;-79.318;2023-06-19T04:51:12;100074.46;;;19.09;40.76
64139;BME280;50435;43.700;-79.318;2023-06-19T04:53:39;100075.24;;;19.02;40.55
64139;BME280;50435;43.700;-79.318;2023-06-19T04:56:06;100077.76;;;19.11;40.49
64139;BME280;50435;43.700;-79.318;2023-06-19T04:58:34;100083.69;;;19.06;40.44
64139;BME280;50435;43.700;-79.318;2023-06-19T05:01:01;100082.45;;;18.95;40.80
64139;BME280;50435;43.700;-79.318;2023-06-19T05:03:29;100078.25;;;18.98;40.85
64139;BME280;50435;43.700;-79.318;2023-06-19T05:05:56;100075.18;;;18.97;40.72
64139;BME280;50435;43.700;-79.318;2023-06-19T05:08:23;100074.73;;;18.96;40.57
64139;BME280;50435;43.700;-79.318;2023-06-19T05:10:51;100076.22;;;18.93;40.59
64139;BME280;50435;43.700;-79.318;2023-06-19T05:13:18;100083.04;;;18.96;40.53
64139;BME280;50435;43.700;-79.318;2023-06-19T05:15:46;100086.33;;;18.95;40.92
64139;BME280;50435;43.700;-79.318;2023-06-19T05:18:14;100085.88;;;18.67;40.88
64139;BME280;50435;43.700;-79.318;2023-06-19T05:20:41;100089.39;;;18.82;40.89
64139;BME280;50435;43.700;-79.318;2023-06-19T05:23:08;100091.25;;;18.70;40.90
64139;BME280;50435;43.700;-79.318;2023-06-19T05:25:36;100091.06;;;18.59;41.07
64139;BME280;50435;43.700;-79.318;2023-06-19T05:28:04;100091.26;;;18.87;41.32
64139;BME280;50435;43.700;-79.318;2023-06-19T05:30:31;100094.57;;;18.89;41.12
64139;BME280;50435;43.700;-79.318;2023-06-19T05:32:58;100103.17;;;18.88;41.17
64139;BME280;50435;43.700;-79.318;2023-06-19T05:35:26;100102.12;;;19.02;41.35
64139;BME280;50435;43.700;-79.318;2023-06-19T05:37:54;100099.55;;;18.43;41.29
64139;BME280;50435;43.700;-79.318;2023-06-19T05:40:21;100098.01;;;18.48;41.23
64139;BME280;50435;43.700;-79.318;2023-06-19T05:42:49;100102.78;;;18.35;41.65
64139;BME280;50435;43.700;-79.318;2023-06-19T05:45:16;100105.95;;;18.41;41.28
64139;BME280;50435;43.700;-79.318;2023-06-19T05:47:44;100101.41;;;18.33;41.69
64139;BME280;50435;43.700;-79.318;2023-06-19T05:50:12;100094.63;;;18.25;41.52
64139;BME280;50435;43.700;-79.318;2023-06-19T05:52:39;100096.27;;;18.78;41.69
64139;BME280;50435;43.700;-79.318;2023-06-19T05:55:08;100097.21;;;18.54;41.37
64139;BME280;50435;43.700;-79.318;2023-06-19T05:57:35;100099.27;;;18.20;41.97
64139;BME280;50435;43.700;-79.318;2023-06-19T06:00:03;100102.28;;;18.66;41.76
64139;BME280;50435;43.700;-79.318;2023-06-19T06:02:31;100108.31;;;18.16;41.85
64139;BME280;50435;43.700;-79.318;2023-06-19T06:04:58;100112.93;;;18.54;42.04
64139;BME280;50435;43.700;-79.318;2023-06-19T06:07:26;100117.94;;;18.47;42.52
64139;BME280;50435;43.700;-79.318;2023-06-19T06:09:53;100120.24;;;17.94;42.46
64139;BME280;50435;43.700;-79.318;2023-06-19T06:12:21;100119.84;;;18.49;41.91
64139;BME280;50435;43.700;-79.318;2023-06-19T06:15:59;100117.68;;;18.56;42.72
64139;BME280;50435;43.700;-79.318;2023-06-19T06:18:27;100115.96;;;18.34;42.61
64139;BME280;50435;43.700;-79.318;2023-06-19T06:20:55;100116.98;;;17.99;42.71
64139;BME280;50435;43.700;-79.318;2023-06-19T06:23:22;100121.06;;;18.28;42.22
64139;BME280;50435;43.700;-79.318;2023-06-19T06:25:49;100123.53;;;18.24;42.64
64139;BME280;50435;43.700;-79.318;2023-06-19T06:28:17;100124.38;;;18.02;42.57
64139;BME280;50435;43.700;-79.318;2023-06-19T06:30:45;100127.84;;;18.13;43.17
64139;BME280;50435;43.700;-79.318;2023-06-19T06:33:12;100128.25;;;18.17;42.82
64139;BME280;50435;43.700;-79.318;2023-06-19T06:35:39;100127.33;;;18.14;43.02
64139;BME280;50435;43.700;-79.318;2023-06-19T06:38:07;100131.43;;;18.11;42.71
64139;BME280;50435;43.700;-79.318;2023-06-19T06:40:34;100131.08;;;18.07;42.88
64139;BME280;50435;43.700;-79.318;2023-06-19T06:43:02;100133.65;;;17.83;43.12
64139;BME280;50435;43.700;-79.318;2023-06-19T06:45:30;100138.85;;;18.24;43.01
64139;BME280;50435;43.700;-79.318;2023-06-19T06:47:57;100142.99;;;18.02;43.19
64139;BME280;50435;43.700;-79.318;2023-06-19T06:50:24;100146.55;;;17.99;42.93
64139;BME280;50435;43.700;-79.318;2023-06-19T06:52:52;100148.77;;;17.94;43.26
64139;BME280;50435;43.700;-79.318;2023-06-19T06:55:19;100146.64;;;17.96;42.88
64139;BME280;50435;43.700;-79.318;2023-06-19T06:57:47;100146.79;;;17.88;43.27
64139;BME280;50435;43.700;-79.318;2023-06-19T07:00:14;100142.52;;;17.86;42.99
64139;BME280;50435;43.700;-79.318;2023-06-19T07:02:42;100136.42;;;17.74;43.52
64139;BME280;50435;43.700;-79.318;2023-06-19T07:05:10;100127.66;;;18.04;43.11
64139;BME280;50435;43.700;-79.318;2023-06-19T07:07:37;100129.43;;;17.77;43.49
64139;BME280;50435;43.700;-79.318;2023-06-19T07:10:06;100129.86;;;17.69;43.66
64139;BME280;50435;43.700;-79.318;2023-06-19T07:12:33;100131.87;;;17.93;43.39
64139;BME280;50435;43.700;-79.318;2023-06-19T07:15:01;100127.05;;;17.72;43.52
64139;BME280;50435;43.700;-79.318;2023-06-19T07:17:28;100125.70;;;17.70;43.52
64139;BME280;50435;43.700;-79.318;2023-06-19T07:19:56;100126.91;;;17.64;43.46
64139;BME280;50435;43.700;-79.318;2023-06-19T07:22:24;100127.77;;;17.67;43.28
64139;BME280;50435;43.700;-79.318;2023-06-19T07:24:52;100127.36;;;17.87;43.60
64139;BME280;50435;43.700;-79.318;2023-06-19T07:27:19;100123.59;;;17.65;43.23
64139;BME280;50435;43.700;-79.318;2023-06-19T07:29:46;100122.82;;;17.59;43.76
64139;BME280;50435;43.700;-79.318;2023-06-19T07:32:14;100126.78;;;18.02;43.58
64139;BME280;50435;43.700;-79.318;2023-06-19T07:34:41;100123.74;;;17.51;43.70
64139;BME280;50435;43.700;-79.318;2023-06-19T07:37:08;100124.76;;;17.83;43.55
64139;BME280;50435;43.700;-79.318;2023-06-19T07:39:35;100129.40;;;17.55;43.55
64139;BME280;50435;43.700;-79.318;2023-06-19T07:42:04;100126.91;;;17.49;43.64
64139;BME280;50435;43.700;-79.318;2023-06-19T07:44:31;100124.70;;;17.34;44.17
64139;BME280;50435;43.700;-79.318;2023-06-19T07:46:59;100116.99;;;17.41;43.75
64139;BME280;50435;43.700;-79.318;2023-06-19T07:49:27;100111.81;;;17.64;43.72
64139;BME280;50435;43.700;-79.318;2023-06-19T07:51:54;100110.84;;;17.35;43.93
64139;BME280;50435;43.700;-79.318;2023-06-19T07:54:22;100116.25;;;17.57;44.13
64139;BME280;50435;43.700;-79.318;2023-06-19T07:56:50;100115.24;;;17.61;44.24
64139;BME280;50435;43.700;-79.318;2023-06-19T07:59:17;100116.54;;;17.31;44.07
64139;BME280;50435;43.700;-79.318;2023-06-19T08:01:46;100121.97;;;17.81;44.31
64139;BME280;50435;43.700;-79.318;2023-06-19T08:04:13;100123.00;;;17.26;43.95
64139;BME280;50435;43.700;-79.318;2023-06-19T08:06:41;100127.03;;;17.72;43.87
64139;BME280;50435;43.700;-79.318;2023-06-19T08:09:08;100129.67;;;17.28;43.85
64139;BME280;50435;43.700;-79.318;2023-06-19T08:11:35;100130.96;;;17.39;44.41
64139;BME280;50435;43.700;-79.318;2023-06-19T08:14:03;100139.07;;;17.35;44.25
64139;BME280;50435;43.700;-79.318;2023-06-19T08:16:30;100137.60;;;17.10;44.35
64139;BME280;50435;43.700;-79.318;2023-06-19T08:18:58;100133.42;;;17.30;44.57
64139;BME280;50435;43.700;-79.318;2023-06-19T08:21:25;100128.93;;;17.36;44.45
64139;BME280;50435;43.700;-79.318;2023-06-19T08:23:53;100122.52;;;17.14;44.19
64139;BME280;50435;43.700;-79.318;2023-06-19T08:26:21;100119.13;;;17.28;44.46
64139;BME280;50435;43.700;-79.318;2023-06-19T08:28:48;100122.38;;;17.24;44.55
64139;BME280;50435;43.700;-79.318;2023-06-19T08:31:16;100118.80;;;17.22;44.66
64139;BME280;50435;43.700;-79.318;2023-06-19T08:33:43;100117.73;;;17.22;44.41
64139;BME280;50435;43.700;-79.318;2023-06-19T08:36:11;100115.55;;;17.42;44.57
64139;BME280;50435;43.700;-79.318;2023-06-19T08:38:38;100117.03;;;17.15;44.49
64139;BME280;50435;43.700;-79.318;2023-06-19T08:41:06;100116.96;;;17.40;44.74
64139;BME280;50435;43.700;-79.318;2023-06-19T08:43:34;100116.51;;;17.12;44.92
64139;BME280;50435;43.700;-79.318;2023-06-19T08:46:09;100113.57;;;17.37;44.81
64139;BME280;50435;43.700;-79.318;2023-06-19T08:48:37;100113.20;;;17.11;44.97
64139;BME280;50435;43.700;-79.318;2023-06-19T08:51:05;100110.80;;;17.37;44.84
64139;BME280;50435;43.700;-79.318;2023-06-19T08:53:35;100111.85;;;17.03;44.97
64139;BME280;50435;43.700;-79.318;2023-06-19T08:56:04;100113.94;;;17.27;45.11
64139;BME280;50435;43.700;-79.318;2023-06-19T08:58:32;100118.75;;;17.29;44.72
64139;BME280;50435;43.700;-79.318;2023-06-19T09:00:59;100124.90;;;17.29;44.95
64139;BME280;50435;43.700;-79.318;2023-06-19T09:03:27;100125.04;;;16.87;45.29
64139;BME280;50435;43.700;-79.318;2023-06-19T09:05:54;100124.16;;;17.36;45.32
64139;BME280;50435;43.700;-79.318;2023-06-19T09:08:22;100125.33;;;16.85;45.11
64139;BME280;50435;43.700;-79.318;2023-06-19T09:10:58;100126.53;;;16.83;45.10
64139;BME280;50435;43.700;-79.318;2023-06-19T09:13:26;100123.69;;;16.85;45.15
64139;BME280;50435;43.700;-79.318;2023-06-19T09:15:59;100123.77;;;17.05;45.48
64139;BME280;50435;43.700;-79.318;2023-06-19T09:18:27;100125.55;;;17.08;45.37
64139;BME280;50435;43.700;-79.318;2023-06-19T09:20:55;100127.71;;;16.77;45.30
64139;BME280;50435;43.700;-79.318;2023-06-19T09:23:24;100129.30;;;17.03;45.13
64139;BME280;50435;43.700;-79.318;2023-06-19T09:25:53;100133.68;;;16.96;45.40
64139;BME280;50435;43.700;-79.318;2023-06-19T09:28:22;100142.92;;;16.67;45.63
64139;BME280;50435;43.700;-79.318;2023-06-19T09:30:55;100148.82;;;16.93;45.53
64139;BME280;50435;43.700;-79.318;2023-06-19T09:33:23;100157.71;;;16.95;45.47
64139;BME280;50435;43.700;-79.318;2023-06-19T09:35:51;100161.52;;;16.95;45.52
64139;BME280;50435;43.700;-79.318;2023-06-19T09:38:21;100165.67;;;16.95;45.46
64139;BME280;50435;43.700;-79.318;2023-06-19T09:40:51;100171.42;;;16.86;45.66
64139;BME280;50435;43.700;-79.318;2023-06-19T09:43:23;100184.12;;;16.89;45.52
64139;BME280;50435;43.700;-79.318;2023-06-19T09:45:52;100189.56;;;16.82;45.73
64139;BME280;50435;43.700;-79.318;2023-06-19T09:48:27;100195.27;;;16.70;45.70
64139;BME280;50435;43.700;-79.318;2023-06-19T09:51:01;100199.08;;;16.74;45.89
64139;BME280;50435;43.700;-79.318;2023-06-19T09:53:30;100208.83;;;16.73;45.81
64139;BME280;50435;43.700;-79.318;2023-06-19T09:55:57;100210.17;;;16.70;45.90
64139;BME280;50435;43.700;-79.318;2023-06-19T09:58:26;100210.27;;;16.78;45.77
64139;BME280;50435;43.700;-79.318;2023-06-19T10:00:54;100205.56;;;16.66;45.87
64139;BME280;50435;43.700;-79.318;2023-06-19T10:03:30;100208.91;;;16.68;45.78
64139;BME280;50435;43.700;-79.318;2023-06-19T10:05:58;100208.42;;;17.13;45.75
64139;BME280;50435;43.700;-79.318;2023-06-19T10:08:31;100204.16;;;16.72;45.80
64139;BME280;50435;43.700;-79.318;2023-06-19T10:10:59;100205.02;;;16.95;45.75
64139;BME280;50435;43.700;-79.318;2023-06-19T10:13:34;100208.57;;;16.69;45.76
64139;BME280;50435;43.700;-79.318;2023-06-19T10:16:02;100213.63;;;16.61;46.08
64139;BME280;50435;43.700;-79.318;2023-06-19T10:18:32;100217.99;;;16.74;45.53
64139;BME280;50435;43.700;-79.318;2023-06-19T10:20:59;100230.89;;;16.41;45.87
64139;BME280;50435;43.700;-79.318;2023-06-19T10:23:27;100244.29;;;16.70;45.81
64139;BME280;50435;43.700;-79.318;2023-06-19T10:25:58;100243.16;;;16.94;45.62
64139;BME280;50435;43.700;-79.318;2023-06-19T10:28:28;100242.49;;;17.08;45.78
64139;BME280;50435;43.700;-79.318;2023-06-19T10:30:57;100242.68;;;16.63;45.77
64139;BME280;50435;43.700;-79.318;2023-06-19T10:33:27;100246.95;;;16.68;45.59
64139;BME280;50435;43.700;-79.318;2023-06-19T10:35:55;100247.73;;;16.68;45.56
64139;BME280;50435;43.700;-79.318;2023-06-19T10:38:22;100250.08;;;16.67;45.53
64139;BME280;50435;43.700;-79.318;2023-06-19T10:40:50;100249.92;;;16.64;45.63
64139;BME280;50435;43.700;-79.318;2023-06-19T10:43:20;100251.30;;;16.60;45.74
64139;BME280;50435;43.700;-79.318;2023-06-19T10:45:48;100245.82;;;16.65;45.48
64139;BME280;50435;43.700;-79.318;2023-06-19T10:48:19;100247.41;;;16.58;45.62
64139;BME280;50435;43.700;-79.318;2023-06-19T10:50:48;100249.71;;;16.56;45.65
64139;BME280;50435;43.700;-79.318;2023-06-19T10:53:25;100254.75;;;17.07;45.32
64139;BME280;50435;43.700;-79.318;2023-06-19T10:55:55;100251.64;;;16.60;45.45
64139;BME280;50435;43.700;-79.318;2023-06-19T10:58:23;100252.47;;;16.63;45.40
64139;BME280;50435;43.700;-79.318;2023-06-19T11:00:51;100252.62;;;16.62;45.43
64139;BME280;50435;43.700;-79.318;2023-06-19T11:03:19;100250.54;;;16.64;45.33
64139;BME280;50435;43.700;-79.318;2023-06-19T11:05:48;100248.60;;;17.04;45.39
64139;BME280;50435;43.700;-79.318;2023-06-19T11:08:18;100246.54;;;16.81;45.58
64139;BME280;50435;43.700;-79.318;2023-06-19T11:10:47;100243.73;;;16.64;45.29
64139;BME280;50435;43.700;-79.318;2023-06-19T11:13:16;100243.32;;;17.01;44.96
64139;BME280;50435;43.700;-79.318;2023-06-19T11:15:44;100242.80;;;16.80;45.12
64139;BME280;50435;43.700;-79.318;2023-06-19T11:18:15;100242.73;;;16.84;45.00
64139;BME280;50435;43.700;-79.318;2023-06-19T11:20:45;100243.41;;;16.76;45.12
64139;BME280;50435;43.700;-79.318;2023-06-19T11:23:13;100243.18;;;16.85;45.07
64139;BME280;50435;43.700;-79.318;2023-06-19T11:25:42;100248.80;;;16.98;44.91
64139;BME280;50435;43.700;-79.318;2023-06-19T11:28:12;100251.33;;;16.89;45.28
64139;BME280;50435;43.700;-79.318;2023-06-19T11:30:39;100259.13;;;16.97;45.36
64139;BME280;50435;43.700;-79.318;2023-06-19T11:33:16;100259.43;;;16.94;45.35
64139;BME280;50435;43.700;-79.318;2023-06-19T11:35:47;100262.26;;;17.09;45.18
64139;BME280;50435;43.700;-79.318;2023-06-19T11:38:18;100257.24;;;17.21;44.81
64139;BME280;50435;43.700;-79.318;2023-06-19T11:40:45;100255.23;;;17.15;44.95
64139;BME280;50435;43.700;-79.318;2023-06-19T11:43:22;100255.68;;;16.91;45.26
64139;BME280;50435;43.700;-79.318;2023-06-19T11:45:50;100255.33;;;16.69;45.97
64139;BME280;50435;43.700;-79.318;2023-06-19T11:48:22;100257.22;;;17.02;45.39
64139;BME280;50435;43.700;-79.318;2023-06-19T11:50:51;100261.67;;;17.05;45.38
64139;BME280;50435;43.700;-79.318;2023-06-19T11:53:18;100267.66;;;17.22;45.13
64139;BME280;50435;43.700;-79.318;2023-06-19T11:55:45;100271.72;;;17.00;44.80
64139;BME280;50435;43.700;-79.318;2023-06-19T11:58:13;100270.21;;;17.03;45.05
64139;BME280;50435;43.700;-79.318;2023-06-19T12:00:41;100268.14;;;17.51;44.89
64139;BME280;50435;43.700;-79.318;2023-06-19T12:03:09;100268.69;;;17.38;44.51
64139;BME280;50435;43.700;-79.318;2023-06-19T12:05:37;100277.27;;;17.50;44.37
64139;BME280;50435;43.700;-79.318;2023-06-19T12:08:05;100276.18;;;17.79;44.23
64139;BME280;50435;43.700;-79.318;2023-06-19T12:10:32;100278.03;;;17.64;43.86
64139;BME280;50435;43.700;-79.318;2023-06-19T12:12:59;100276.14;;;17.64;43.63
64139;BME280;50435;43.700;-79.318;2023-06-19T12:15:27;100277.82;;;17.66;43.42
64139;BME280;50435;43.700;-79.318;2023-06-19T12:17:55;100273.87;;;17.92;43.17
64139;BME280;50435;43.700;-79.318;2023-06-19T12:20:22;100272.38;;;17.71;43.23
64139;BME280;50435;43.700;-79.318;2023-06-19T12:22:49;100272.63;;;17.68;44.57
64139;BME280;50435;43.700;-79.318;2023-06-19T12:25:17;100277.70;;;17.97;44.18
64139;BME280;50435;43.700;-79.318;2023-06-19T12:27:44;100279.65;;;17.71;45.69
64139;BME280;50435;43.700;-79.318;2023-06-19T12:30:12;100281.19;;;17.78;44.30
64139;BME280;50435;43.700;-79.318;2023-06-19T12:32:40;100283.00;;;17.78;45.56
64139;BME280;50435;43.700;-79.318;2023-06-19T12:35:08;100294.80;;;17.78;45.71